sensor_id;sensor_type;location;lat;lon;timestamp;P1;durP1;ratioP1;P2;durP2;ratioP2
5945;SDS011;2998;48.206;16.394;2022-12-15T00:02:27;76.07;;;40.43;;
5945;SDS011;2998;48.206;16.394;2022-12-15T00:05:13;75.43;;;42.93;;
5945;SDS011;2998;48.206;16.394;2022-12-15T00:08:04;77.97;;;41.93;;
5945;SDS011;2998;48.206;16.394;2022-12-15T00:10:49;80.70;;;43.07;;
5945;SDS011;2998;48.206;16.394;2022-12-15T00:13:35;86.27;;;42.70;;
5945;SDS011;2998;48.206;16.394;2022-12-15T00:16:20;86.73;;;44.60;;
5945;SDS011;2998;48.206;16.394;2022-12-15T00:19:07;79.33;;;43.20;;
5945;SDS011;2998;48.206;16.394;2022-12-15T00:21:52;86.73;;;46.87;;
5945;SDS011;2998;48.206;16.394;2022-12-15T00:24:37;83.50;;;45.73;;
5945;SDS011;2998;48.206;16.394;2022-12-15T00:27:22;95.00;;;47.30;;
5945;SDS011;2998;48.206;16.394;2022-12-15T00:30:08;84.23;;;44.73;;
5945;SDS011;2998;48.206;16.394;2022-12-15T00:32:54;85.60;;;46.57;;
5945;SDS011;2998;48.206;16.394;2022-12-15T00:35:41;99.90;;;49.33;;
5945;SDS011;2998;48.206;16.394;2022-12-15T00:38:26;107.00;;;51.93;;
5945;SDS011;2998;48.206;16.394;2022-12-15T00:41:10;100.70;;;47.60;;
5945;SDS011;2998;48.206;16.394;2022-12-15T00:43:38;97.20;;;47.97;;
5945;SDS011;2998;48.206;16.394;2022-12-15T00:46:06;104.10;;;49.87;;
5945;SDS011;2998;48.206;16.394;2022-12-15T00:48:51;97.90;;;50.40;;
5945;SDS011;2998;48.206;16.394;2022-12-15T00:51:21;99.47;;;51.60;;
5945;SDS011;2998;48.206;16.394;2022-12-15T00:54:08;106.03;;;51.07;;
5945;SDS011;2998;48.206;16.394;2022-12-15T00:56:54;99.93;;;51.70;;
5945;SDS011;2998;48.206;16.394;2022-12-15T00:59:39;97.20;;;48.97;;
5945;SDS011;2998;48.206;16.394;2022-12-15T01:02:24;108.90;;;47.77;;
5945;SDS011;2998;48.206;16.394;2022-12-15T01:05:10;102.30;;;50.60;;
5945;SDS011;2998;48.206;16.394;2022-12-15T01:07:59;115.10;;;51.63;;
5945;SDS011;2998;48.206;16.394;2022-12-15T01:10:44;110.53;;;51.63;;
5945;SDS011;2998;48.206;16.394;2022-12-15T01:13:29;102.27;;;49.93;;
5945;SDS011;2998;48.206;16.394;2022-12-15T01:16:15;113.47;;;54.10;;
5945;SDS011;2998;48.206;16.394;2022-12-15T01:19:00;109.23;;;51.30;;
5945;SDS011;2998;48.206;16.394;2022-12-15T01:21:46;113.97;;;51.13;;
5945;SDS011;2998;48.206;16.394;2022-12-15T01:24:16;104.20;;;51.30;;
5945;SDS011;2998;48.206;16.394;2022-12-15T01:26:44;118.17;;;55.07;;
5945;SDS011;2998;48.206;16.394;2022-12-15T01:29:12;110.97;;;52.83;;
5945;SDS011;2998;48.206;16.394;2022-12-15T01:31:40;112.27;;;52.70;;
5945;SDS011;2998;48.206;16.394;2022-12-15T01:34:09;107.93;;;51.70;;
5945;SDS011;2998;48.206;16.394;2022-12-15T01:36:37;109.43;;;52.30;;
5945;SDS011;2998;48.206;16.394;2022-12-15T01:39:05;104.00;;;52.27;;
5945;SDS011;2998;48.206;16.394;2022-12-15T01:41:34;113.40;;;52.87;;
5945;SDS011;2998;48.206;16.394;2022-12-15T01:44:14;100.80;;;50.57;;
5945;SDS011;2998;48.206;16.394;2022-12-15T01:46:44;115.27;;;58.10;;
5945;SDS011;2998;48.206;16.394;2022-12-15T01:49:13;118.37;;;55.87;;
5945;SDS011;2998;48.206;16.394;2022-12-15T01:51:43;113.07;;;52.57;;
5945;SDS011;2998;48.206;16.394;2022-12-15T01:54:14;119.93;;;54.43;;
5945;SDS011;2998;48.206;16.394;2022-12-15T01:56:45;122.53;;;54.80;;
5945;SDS011;2998;48.206;16.394;2022-12-15T01:59:15;125.97;;;54.80;;
5945;SDS011;2998;48.206;16.394;2022-12-15T02:01:46;114.30;;;53.20;;
5945;SDS011;2998;48.206;16.394;2022-12-15T02:04:15;117.73;;;52.30;;
5945;SDS011;2998;48.206;16.394;2022-12-15T02:06:44;125.03;;;53.33;;
5945;SDS011;2998;48.206;16.394;2022-12-15T02:09:12;106.87;;;51.67;;
5945;SDS011;2998;48.206;16.394;2022-12-15T02:12:00;105.33;;;50.13;;
5945;SDS011;2998;48.206;16.394;2022-12-15T02:14:34;105.93;;;51.60;;
5945;SDS011;2998;48.206;16.394;2022-12-15T02:17:09;112.27;;;51.17;;
5945;SDS011;2998;48.206;16.394;2022-12-15T02:22:57;108.73;;;49.40;;
5945;SDS011;2998;48.206;16.394;2022-12-15T02:25:56;104.77;;;49.17;;
5945;SDS011;2998;48.206;16.394;2022-12-15T02:28:50;124.87;;;52.27;;
5945;SDS011;2998;48.206;16.394;2022-12-15T02:31:22;115.00;;;52.43;;
5945;SDS011;2998;48.206;16.394;2022-12-15T02:34:16;104.63;;;49.77;;
5945;SDS011;2998;48.206;16.394;2022-12-15T02:36:49;120.23;;;53.17;;
5945;SDS011;2998;48.206;16.394;2022-12-15T02:39:21;112.13;;;49.97;;
5945;SDS011;2998;48.206;16.394;2022-12-15T02:41:50;108.97;;;51.13;;
5945;SDS011;2998;48.206;16.394;2022-12-15T02:44:18;113.13;;;52.13;;
5945;SDS011;2998;48.206;16.394;2022-12-15T02:47:04;108.17;;;48.73;;
5945;SDS011;2998;48.206;16.394;2022-12-15T02:49:46;109.30;;;51.83;;
5945;SDS011;2998;48.206;16.394;2022-12-15T02:52:22;110.13;;;49.20;;
5945;SDS011;2998;48.206;16.394;2022-12-15T02:54:57;96.43;;;48.10;;
5945;SDS011;2998;48.206;16.394;2022-12-15T02:57:32;100.87;;;49.10;;
5945;SDS011;2998;48.206;16.394;2022-12-15T03:00:05;118.00;;;51.77;;
5945;SDS011;2998;48.206;16.394;2022-12-15T03:02:36;102.77;;;48.77;;
5945;SDS011;2998;48.206;16.394;2022-12-15T03:05:06;102.53;;;47.60;;
5945;SDS011;2998;48.206;16.394;2022-12-15T03:07:35;99.27;;;45.73;;
5945;SDS011;2998;48.206;16.394;2022-12-15T03:10:03;99.93;;;47.60;;
5945;SDS011;2998;48.206;16.394;2022-12-15T03:12:33;91.27;;;46.10;;
5945;SDS011;2998;48.206;16.394;2022-12-15T03:15:01;102.27;;;47.80;;
5945;SDS011;2998;48.206;16.394;2022-12-15T03:17:29;94.77;;;45.63;;
5945;SDS011;2998;48.206;16.394;2022-12-15T03:19:58;108.50;;;48.40;;
5945;SDS011;2998;48.206;16.394;2022-12-15T03:22:26;92.37;;;45.97;;
5945;SDS011;2998;48.206;16.394;2022-12-15T03:24:54;105.93;;;48.20;;
5945;SDS011;2998;48.206;16.394;2022-12-15T03:27:22;116.87;;;50.77;;
5945;SDS011;2998;48.206;16.394;2022-12-15T03:29:50;112.40;;;48.10;;
5945;SDS011;2998;48.206;16.394;2022-12-15T03:32:18;111.27;;;50.30;;
5945;SDS011;2998;48.206;16.394;2022-12-15T03:34:46;102.93;;;50.43;;
5945;SDS011;2998;48.206;16.394;2022-12-15T03:37:15;110.40;;;50.97;;
5945;SDS011;2998;48.206;16.394;2022-12-15T03:39:43;105.77;;;50.03;;
5945;SDS011;2998;48.206;16.394;2022-12-15T03:42:11;125.50;;;54.00;;
5945;SDS011;2998;48.206;16.394;2022-12-15T03:44:38;119.27;;;53.97;;
5945;SDS011;2998;48.206;16.394;2022-12-15T03:47:06;122.57;;;53.03;;
5945;SDS011;2998;48.206;16.394;2022-12-15T03:49:34;135.97;;;55.97;;
5945;SDS011;2998;48.206;16.394;2022-12-15T03:52:02;141.53;;;56.13;;
5945;SDS011;2998;48.206;16.394;2022-12-15T03:54:32;131.97;;;52.63;;
5945;SDS011;2998;48.206;16.394;2022-12-15T03:57:00;133.20;;;58.00;;
5945;SDS011;2998;48.206;16.394;2022-12-15T03:59:28;138.97;;;57.53;;
5945;SDS011;2998;48.206;16.394;2022-12-15T04:01:55;133.67;;;55.63;;
5945;SDS011;2998;48.206;16.394;2022-12-15T04:04:24;142.07;;;55.23;;
5945;SDS011;2998;48.206;16.394;2022-12-15T04:06:51;142.37;;;57.80;;
5945;SDS011;2998;48.206;16.394;2022-12-15T04:09:19;137.03;;;59.00;;
5945;SDS011;2998;48.206;16.394;2022-12-15T04:11:49;139.23;;;58.37;;
5945;SDS011;2998;48.206;16.394;2022-12-15T04:14:17;134.07;;;55.93;;
5945;SDS011;2998;48.206;16.394;2022-12-15T04:16:44;136.80;;;57.30;;
5945;SDS011;2998;48.206;16.394;2022-12-15T04:19:13;154.60;;;59.00;;
5945;SDS011;2998;48.206;16.394;2022-12-15T04:21:58;163.20;;;62.10;;
5945;SDS011;2998;48.206;16.394;2022-12-15T04:24:27;152.27;;;56.90;;
5945;SDS011;2998;48.206;16.394;2022-12-15T04:27:14;135.73;;;57.43;;
5945;SDS011;2998;48.206;16.394;2022-12-15T04:30:00;138.73;;;58.00;;
5945;SDS011;2998;48.206;16.394;2022-12-15T04:32:46;139.63;;;56.40;;
5945;SDS011;2998;48.206;16.394;2022-12-15T04:35:31;132.37;;;56.10;;
5945;SDS011;2998;48.206;16.394;2022-12-15T04:38:18;151.83;;;62.20;;
5945;SDS011;2998;48.206;16.394;2022-12-15T04:41:09;141.63;;;56.20;;
5945;SDS011;2998;48.206;16.394;2022-12-15T04:43:56;136.33;;;56.93;;
5945;SDS011;2998;48.206;16.394;2022-12-15T04:46:41;133.13;;;58.63;;
5945;SDS011;2998;48.206;16.394;2022-12-15T04:49:26;143.77;;;63.10;;
5945;SDS011;2998;48.206;16.394;2022-12-15T04:52:12;135.73;;;55.40;;
5945;SDS011;2998;48.206;16.394;2022-12-15T04:54:57;135.07;;;58.03;;
5945;SDS011;2998;48.206;16.394;2022-12-15T04:57:42;117.03;;;53.30;;
5945;SDS011;2998;48.206;16.394;2022-12-15T05:00:29;117.87;;;51.73;;
5945;SDS011;2998;48.206;16.394;2022-12-15T05:03:14;128.70;;;53.80;;
5945;SDS011;2998;48.206;16.394;2022-12-15T05:06:00;131.10;;;54.17;;
5945;SDS011;2998;48.206;16.394;2022-12-15T05:08:45;119.20;;;52.63;;
5945;SDS011;2998;48.206;16.394;2022-12-15T05:11:30;121.70;;;55.00;;
5945;SDS011;2998;48.206;16.394;2022-12-15T05:14:15;139.30;;;55.80;;
5945;SDS011;2998;48.206;16.394;2022-12-15T05:17:02;129.83;;;55.37;;
5945;SDS011;2998;48.206;16.394;2022-12-15T05:19:48;119.20;;;53.57;;
5945;SDS011;2998;48.206;16.394;2022-12-15T05:22:33;116.53;;;53.07;;
5945;SDS011;2998;48.206;16.394;2022-12-15T05:25:19;117.37;;;53.67;;
5945;SDS011;2998;48.206;16.394;2022-12-15T05:28:05;119.20;;;53.13;;
5945;SDS011;2998;48.206;16.394;2022-12-15T05:30:50;109.20;;;48.77;;
5945;SDS011;2998;48.206;16.394;2022-12-15T05:33:37;115.23;;;51.00;;
5945;SDS011;2998;48.206;16.394;2022-12-15T05:36:05;102.20;;;48.13;;
5945;SDS011;2998;48.206;16.394;2022-12-15T05:38:34;95.87;;;47.37;;
5945;SDS011;2998;48.206;16.394;2022-12-15T05:41:02;103.20;;;50.40;;
5945;SDS011;2998;48.206;16.394;2022-12-15T05:43:29;101.97;;;48.67;;
5945;SDS011;2998;48.206;16.394;2022-12-15T05:46:01;105.63;;;48.50;;
5945;SDS011;2998;48.206;16.394;2022-12-15T05:48:29;105.70;;;47.43;;
5945;SDS011;2998;48.206;16.394;2022-12-15T05:51:02;99.00;;;48.17;;
5945;SDS011;2998;48.206;16.394;2022-12-15T05:53:31;97.47;;;46.70;;
5945;SDS011;2998;48.206;16.394;2022-12-15T05:56:00;92.97;;;46.60;;
5945;SDS011;2998;48.206;16.394;2022-12-15T05:58:28;89.90;;;46.13;;
5945;SDS011;2998;48.206;16.394;2022-12-15T06:01:01;94.73;;;45.27;;
5945;SDS011;2998;48.206;16.394;2022-12-15T06:03:30;85.80;;;46.10;;
5945;SDS011;2998;48.206;16.394;2022-12-15T06:05:59;98.67;;;47.50;;
5945;SDS011;2998;48.206;16.394;2022-12-15T06:08:29;95.97;;;48.00;;
5945;SDS011;2998;48.206;16.394;2022-12-15T06:10:59;94.63;;;46.07;;
5945;SDS011;2998;48.206;16.394;2022-12-15T06:13:27;95.00;;;43.80;;
5945;SDS011;2998;48.206;16.394;2022-12-15T06:15:58;96.30;;;45.23;;
5945;SDS011;2998;48.206;16.394;2022-12-15T06:18:27;88.40;;;45.30;;
5945;SDS011;2998;48.206;16.394;2022-12-15T06:20:56;84.90;;;43.20;;
5945;SDS011;2998;48.206;16.394;2022-12-15T06:23:26;97.13;;;48.00;;
5945;SDS011;2998;48.206;16.394;2022-12-15T06:25:56;90.47;;;43.10;;
5945;SDS011;2998;48.206;16.394;2022-12-15T06:28:25;82.47;;;40.80;;
5945;SDS011;2998;48.206;16.394;2022-12-15T06:30:54;90.20;;;45.00;;
5945;SDS011;2998;48.206;16.394;2022-12-15T06:33:22;88.10;;;43.50;;
5945;SDS011;2998;48.206;16.394;2022-12-15T06:35:50;89.30;;;43.20;;
5945;SDS011;2998;48.206;16.394;2022-12-15T06:38:18;93.00;;;45.87;;
5945;SDS011;2998;48.206;16.394;2022-12-15T06:40:53;82.40;;;43.77;;
5945;SDS011;2998;48.206;16.394;2022-12-15T06:43:23;92.27;;;46.70;;
5945;SDS011;2998;48.206;16.394;2022-12-15T06:45:51;86.37;;;44.50;;
5945;SDS011;2998;48.206;16.394;2022-12-15T06:48:19;93.77;;;47.00;;
5945;SDS011;2998;48.206;16.394;2022-12-15T06:50:48;88.40;;;43.87;;
5945;SDS011;2998;48.206;16.394;2022-12-15T06:53:17;78.60;;;39.20;;
5945;SDS011;2998;48.206;16.394;2022-12-15T06:55:46;76.60;;;40.93;;
5945;SDS011;2998;48.206;16.394;2022-12-15T06:58:14;72.90;;;40.70;;
5945;SDS011;2998;48.206;16.394;2022-12-15T07:00:44;83.93;;;41.50;;
5945;SDS011;2998;48.206;16.394;2022-12-15T07:03:13;77.40;;;41.57;;
5945;SDS011;2998;48.206;16.394;2022-12-15T07:05:43;80.13;;;40.97;;
5945;SDS011;2998;48.206;16.394;2022-12-15T07:08:12;81.73;;;42.70;;
5945;SDS011;2998;48.206;16.394;2022-12-15T07:10:41;87.33;;;44.83;;
5945;SDS011;2998;48.206;16.394;2022-12-15T07:13:10;91.13;;;45.30;;
5945;SDS011;2998;48.206;16.394;2022-12-15T07:15:39;80.07;;;42.20;;
5945;SDS011;2998;48.206;16.394;2022-12-15T07:18:09;89.60;;;45.50;;
5945;SDS011;2998;48.206;16.394;2022-12-15T07:20:37;87.33;;;43.20;;
5945;SDS011;2998;48.206;16.394;2022-12-15T07:23:05;76.07;;;41.53;;
5945;SDS011;2998;48.206;16.394;2022-12-15T07:25:35;85.53;;;41.60;;
5945;SDS011;2998;48.206;16.394;2022-12-15T07:28:03;86.33;;;42.53;;
5945;SDS011;2998;48.206;16.394;2022-12-15T07:30:31;78.97;;;42.27;;
5945;SDS011;2998;48.206;16.394;2022-12-15T07:33:04;83.50;;;41.80;;
5945;SDS011;2998;48.206;16.394;2022-12-15T07:35:34;84.27;;;42.27;;
5945;SDS011;2998;48.206;16.394;2022-12-15T07:38:04;79.43;;;41.00;;
5945;SDS011;2998;48.206;16.394;2022-12-15T07:40:32;73.40;;;39.60;;
5945;SDS011;2998;48.206;16.394;2022-12-15T07:43:01;81.93;;;40.90;;
5945;SDS011;2998;48.206;16.394;2022-12-15T07:45:29;73.27;;;39.80;;
5945;SDS011;2998;48.206;16.394;2022-12-15T07:47:57;72.87;;;39.70;;
5945;SDS011;2998;48.206;16.394;2022-12-15T07:50:25;73.60;;;40.00;;
5945;SDS011;2998;48.206;16.394;2022-12-15T07:52:55;69.10;;;37.63;;
5945;SDS011;2998;48.206;16.394;2022-12-15T07:55:23;67.20;;;39.90;;
5945;SDS011;2998;48.206;16.394;2022-12-15T07:58:11;76.13;;;40.17;;
5945;SDS011;2998;48.206;16.394;2022-12-15T08:00:39;79.97;;;39.37;;
5945;SDS011;2998;48.206;16.394;2022-12-15T08:03:14;77.67;;;38.70;;
5945;SDS011;2998;48.206;16.394;2022-12-15T08:05:42;77.83;;;38.90;;
5945;SDS011;2998;48.206;16.394;2022-12-15T08:08:11;69.17;;;38.93;;
5945;SDS011;2998;48.206;16.394;2022-12-15T08:10:41;72.77;;;40.30;;
5945;SDS011;2998;48.206;16.394;2022-12-15T08:13:08;64.23;;;37.70;;
5945;SDS011;2998;48.206;16.394;2022-12-15T08:15:56;65.43;;;36.23;;
5945;SDS011;2998;48.206;16.394;2022-12-15T08:18:24;68.80;;;37.07;;
5945;SDS011;2998;48.206;16.394;2022-12-15T08:20:52;64.40;;;37.80;;
5945;SDS011;2998;48.206;16.394;2022-12-15T08:23:23;69.53;;;36.83;;
5945;SDS011;2998;48.206;16.394;2022-12-15T08:25:51;76.57;;;40.80;;
5945;SDS011;2998;48.206;16.394;2022-12-15T08:28:19;71.17;;;37.20;;
5945;SDS011;2998;48.206;16.394;2022-12-15T08:30:47;68.63;;;38.57;;
5945;SDS011;2998;48.206;16.394;2022-12-15T08:33:15;76.03;;;39.63;;
5945;SDS011;2998;48.206;16.394;2022-12-15T08:35:43;72.40;;;39.97;;
5945;SDS011;2998;48.206;16.394;2022-12-15T08:38:23;75.63;;;39.40;;
5945;SDS011;2998;48.206;16.394;2022-12-15T08:40:51;77.90;;;39.87;;
5945;SDS011;2998;48.206;16.394;2022-12-15T08:43:19;74.80;;;40.30;;
5945;SDS011;2998;48.206;16.394;2022-12-15T08:45:47;77.77;;;40.43;;
5945;SDS011;2998;48.206;16.394;2022-12-15T08:48:15;75.93;;;37.47;;
5945;SDS011;2998;48.206;16.394;2022-12-15T08:50:43;70.30;;;38.87;;
5945;SDS011;2998;48.206;16.394;2022-12-15T08:53:12;74.90;;;36.90;;
5945;SDS011;2998;48.206;16.394;2022-12-15T08:56:02;78.60;;;38.87;;
5945;SDS011;2998;48.206;16.394;2022-12-15T08:58:31;72.97;;;37.57;;
5945;SDS011;2998;48.206;16.394;2022-12-15T09:00:59;72.73;;;39.37;;
5945;SDS011;2998;48.206;16.394;2022-12-15T09:03:27;73.07;;;39.17;;
5945;SDS011;2998;48.206;16.394;2022-12-15T09:06:00;65.97;;;38.33;;
5945;SDS011;2998;48.206;16.394;2022-12-15T09:08:29;71.50;;;38.03;;
5945;SDS011;2998;48.206;16.394;2022-12-15T09:10:57;68.87;;;38.90;;
5945;SDS011;2998;48.206;16.394;2022-12-15T09:13:27;64.30;;;37.10;;
5945;SDS011;2998;48.206;16.394;2022-12-15T09:15:56;58.90;;;34.20;;
5945;SDS011;2998;48.206;16.394;2022-12-15T09:18:40;70.27;;;36.77;;
5945;SDS011;2998;48.206;16.394;2022-12-15T09:21:08;72.73;;;36.87;;
5945;SDS011;2998;48.206;16.394;2022-12-15T09:23:37;64.77;;;35.07;;
5945;SDS011;2998;48.206;16.394;2022-12-15T09:26:06;69.67;;;36.60;;
5945;SDS011;2998;48.206;16.394;2022-12-15T09:28:36;69.20;;;36.77;;
5945;SDS011;2998;48.206;16.394;2022-12-15T09:31:05;61.03;;;33.13;;
5945;SDS011;2998;48.206;16.394;2022-12-15T09:33:34;62.77;;;35.57;;
5945;SDS011;2998;48.206;16.394;2022-12-15T09:36:02;64.93;;;34.70;;
5945;SDS011;2998;48.206;16.394;2022-12-15T09:38:31;55.73;;;31.67;;
5945;SDS011;2998;48.206;16.394;2022-12-15T09:41:06;53.70;;;30.80;;
5945;SDS011;2998;48.206;16.394;2022-12-15T09:43:35;56.40;;;29.80;;
5945;SDS011;2998;48.206;16.394;2022-12-15T09:46:15;56.67;;;29.73;;
5945;SDS011;2998;48.206;16.394;2022-12-15T09:48:46;57.43;;;31.50;;
5945;SDS011;2998;48.206;16.394;2022-12-15T09:51:15;57.97;;;32.57;;
5945;SDS011;2998;48.206;16.394;2022-12-15T09:53:44;62.27;;;33.57;;
5945;SDS011;2998;48.206;16.394;2022-12-15T09:56:22;66.73;;;33.60;;
5945;SDS011;2998;48.206;16.394;2022-12-15T09:58:57;67.67;;;35.37;;
5945;SDS011;2998;48.206;16.394;2022-12-15T10:01:30;61.77;;;33.93;;
5945;SDS011;2998;48.206;16.394;2022-12-15T10:04:04;60.43;;;32.50;;
5945;SDS011;2998;48.206;16.394;2022-12-15T10:06:35;65.00;;;33.20;;
5945;SDS011;2998;48.206;16.394;2022-12-15T10:09:08;66.27;;;33.03;;
5945;SDS011;2998;48.206;16.394;2022-12-15T10:11:45;58.73;;;31.90;;
5945;SDS011;2998;48.206;16.394;2022-12-15T10:14:20;59.27;;;32.77;;
5945;SDS011;2998;48.206;16.394;2022-12-15T10:16:55;67.47;;;33.03;;
5945;SDS011;2998;48.206;16.394;2022-12-15T10:19:33;59.80;;;30.63;;
5945;SDS011;2998;48.206;16.394;2022-12-15T10:22:08;57.90;;;31.53;;
5945;SDS011;2998;48.206;16.394;2022-12-15T10:24:38;64.20;;;33.47;;
5945;SDS011;2998;48.206;16.394;2022-12-15T10:27:41;57.20;;;30.00;;
5945;SDS011;2998;48.206;16.394;2022-12-15T10:30:21;63.50;;;33.50;;
5945;SDS011;2998;48.206;16.394;2022-12-15T10:32:50;65.63;;;35.77;;
5945;SDS011;2998;48.206;16.394;2022-12-15T10:35:24;68.17;;;35.03;;
5945;SDS011;2998;48.206;16.394;2022-12-15T10:37:55;71.73;;;35.37;;
5945;SDS011;2998;48.206;16.394;2022-12-15T10:43:22;66.03;;;34.87;;
5945;SDS011;2998;48.206;16.394;2022-12-15T10:46:02;75.93;;;36.53;;
5945;SDS011;2998;48.206;16.394;2022-12-15T10:48:32;77.57;;;35.00;;
5945;SDS011;2998;48.206;16.394;2022-12-15T10:53:48;69.10;;;34.83;;
5945;SDS011;2998;48.206;16.394;2022-12-15T10:56:22;58.73;;;31.60;;
5945;SDS011;2998;48.206;16.394;2022-12-15T10:58:59;72.50;;;34.67;;
5945;SDS011;2998;48.206;16.394;2022-12-15T11:01:30;71.50;;;34.57;;
5945;SDS011;2998;48.206;16.394;2022-12-15T11:04:01;63.53;;;33.20;;
5945;SDS011;2998;48.206;16.394;2022-12-15T11:06:30;60.93;;;33.37;;
5945;SDS011;2998;48.206;16.394;2022-12-15T11:09:06;67.10;;;34.43;;
5945;SDS011;2998;48.206;16.394;2022-12-15T11:11:45;74.93;;;36.20;;
5945;SDS011;2998;48.206;16.394;2022-12-15T11:14:41;68.27;;;35.80;;
5945;SDS011;2998;48.206;16.394;2022-12-15T11:17:14;66.90;;;33.90;;
5945;SDS011;2998;48.206;16.394;2022-12-15T11:19:46;70.63;;;35.27;;
5945;SDS011;2998;48.206;16.394;2022-12-15T11:22:30;66.30;;;34.17;;
5945;SDS011;2998;48.206;16.394;2022-12-15T11:25:03;68.20;;;34.77;;
5945;SDS011;2998;48.206;16.394;2022-12-15T11:27:36;66.93;;;35.07;;
5945;SDS011;2998;48.206;16.394;2022-12-15T11:30:09;64.33;;;35.47;;
5945;SDS011;2998;48.206;16.394;2022-12-15T11:32:41;63.73;;;34.73;;
5945;SDS011;2998;48.206;16.394;2022-12-15T11:35:14;64.27;;;35.77;;
5945;SDS011;2998;48.206;16.394;2022-12-15T11:37:44;59.67;;;34.00;;
5945;SDS011;2998;48.206;16.394;2022-12-15T11:43:11;62.13;;;35.80;;
5945;SDS011;2998;48.206;16.394;2022-12-15T11:46:07;58.77;;;33.70;;
5945;SDS011;2998;48.206;16.394;2022-12-15T11:48:45;64.63;;;34.77;;
5945;SDS011;2998;48.206;16.394;2022-12-15T11:51:22;70.93;;;36.57;;
5945;SDS011;2998;48.206;16.394;2022-12-15T11:53:58;61.77;;;34.80;;
5945;SDS011;2998;48.206;16.394;2022-12-15T11:56:32;62.47;;;36.03;;
5945;SDS011;2998;48.206;16.394;2022-12-15T11:59:10;67.67;;;36.73;;
5945;SDS011;2998;48.206;16.394;2022-12-15T12:01:49;63.53;;;36.33;;
5945;SDS011;2998;48.206;16.394;2022-12-15T12:04:32;69.73;;;37.87;;
5945;SDS011;2998;48.206;16.394;2022-12-15T12:07:06;110.10;;;57.70;;
5945;SDS011;2998;48.206;16.394;2022-12-15T12:09:35;74.67;;;39.20;;
5945;SDS011;2998;48.206;16.394;2022-12-15T12:12:10;81.03;;;42.40;;
5945;SDS011;2998;48.206;16.394;2022-12-15T12:14:45;72.83;;;40.70;;
5945;SDS011;2998;48.206;16.394;2022-12-15T12:17:20;67.50;;;35.50;;
5945;SDS011;2998;48.206;16.394;2022-12-15T12:19:56;72.17;;;36.63;;
5945;SDS011;2998;48.206;16.394;2022-12-15T12:22:26;68.87;;;39.03;;
5945;SDS011;2998;48.206;16.394;2022-12-15T12:24:58;72.23;;;35.60;;
5945;SDS011;2998;48.206;16.394;2022-12-15T12:27:32;73.87;;;37.57;;
5945;SDS011;2998;48.206;16.394;2022-12-15T12:30:03;70.20;;;35.10;;
5945;SDS011;2998;48.206;16.394;2022-12-15T12:32:37;72.67;;;37.70;;
5945;SDS011;2998;48.206;16.394;2022-12-15T12:35:12;64.13;;;34.60;;
5945;SDS011;2998;48.206;16.394;2022-12-15T12:37:58;68.23;;;34.13;;
5945;SDS011;2998;48.206;16.394;2022-12-15T12:40:32;66.80;;;36.07;;
5945;SDS011;2998;48.206;16.394;2022-12-15T12:43:08;68.33;;;36.20;;
5945;SDS011;2998;48.206;16.394;2022-12-15T12:45:40;61.07;;;35.70;;
5945;SDS011;2998;48.206;16.394;2022-12-15T12:48:17;58.97;;;34.17;;
5945;SDS011;2998;48.206;16.394;2022-12-15T12:50:50;60.37;;;33.43;;
5945;SDS011;2998;48.206;16.394;2022-12-15T12:53:26;52.30;;;31.37;;
5945;SDS011;2998;48.206;16.394;2022-12-15T12:55:59;56.63;;;32.10;;
5945;SDS011;2998;48.206;16.394;2022-12-15T12:58:31;53.80;;;32.40;;
5945;SDS011;2998;48.206;16.394;2022-12-15T13:01:04;54.17;;;32.30;;
5945;SDS011;2998;48.206;16.394;2022-12-15T13:03:36;54.00;;;32.20;;
5945;SDS011;2998;48.206;16.394;2022-12-15T13:06:19;58.93;;;35.03;;
5945;SDS011;2998;48.206;16.394;2022-12-15T13:08:50;64.73;;;36.90;;
5945;SDS011;2998;48.206;16.394;2022-12-15T13:14:19;52.93;;;33.03;;
5945;SDS011;2998;48.206;16.394;2022-12-15T13:16:54;49.83;;;29.50;;
5945;SDS011;2998;48.206;16.394;2022-12-15T13:22:46;48.77;;;28.97;;
5945;SDS011;2998;48.206;16.394;2022-12-15T13:33:59;49.93;;;29.50;;
5945;SDS011;2998;48.206;16.394;2022-12-15T13:36:42;50.90;;;30.27;;
5945;SDS011;2998;48.206;16.394;2022-12-15T13:39:32;54.63;;;33.20;;
5945;SDS011;2998;48.206;16.394;2022-12-15T13:48:19;44.23;;;26.87;;
5945;SDS011;2998;48.206;16.394;2022-12-15T13:50:53;41.60;;;25.87;;
5945;SDS011;2998;48.206;16.394;2022-12-15T13:53:24;44.20;;;27.50;;
5945;SDS011;2998;48.206;16.394;2022-12-15T13:56:02;47.27;;;28.40;;
5945;SDS011;2998;48.206;16.394;2022-12-15T13:58:36;37.33;;;23.07;;
5945;SDS011;2998;48.206;16.394;2022-12-15T14:01:16;37.43;;;23.40;;
5945;SDS011;2998;48.206;16.394;2022-12-15T14:03:56;36.97;;;22.33;;
5945;SDS011;2998;48.206;16.394;2022-12-15T14:06:26;36.10;;;22.83;;
5945;SDS011;2998;48.206;16.394;2022-12-15T14:09:00;35.20;;;22.73;;
5945;SDS011;2998;48.206;16.394;2022-12-15T14:11:31;33.43;;;23.37;;
5945;SDS011;2998;48.206;16.394;2022-12-15T14:14:19;39.20;;;25.10;;
5945;SDS011;2998;48.206;16.394;2022-12-15T14:16:54;58.70;;;33.20;;
5945;SDS011;2998;48.206;16.394;2022-12-15T14:19:24;40.83;;;26.07;;
5945;SDS011;2998;48.206;16.394;2022-12-15T14:21:52;38.30;;;24.97;;
5945;SDS011;2998;48.206;16.394;2022-12-15T14:24:22;34.73;;;23.20;;
5945;SDS011;2998;48.206;16.394;2022-12-15T14:27:20;40.07;;;25.10;;
5945;SDS011;2998;48.206;16.394;2022-12-15T14:30:04;39.47;;;25.20;;
5945;SDS011;2998;48.206;16.394;2022-12-15T14:32:38;41.87;;;24.10;;
5945;SDS011;2998;48.206;16.394;2022-12-15T14:35:10;38.87;;;24.10;;
5945;SDS011;2998;48.206;16.394;2022-12-15T14:37:39;34.37;;;22.40;;
5945;SDS011;2998;48.206;16.394;2022-12-15T14:40:11;40.83;;;24.00;;
5945;SDS011;2998;48.206;16.394;2022-12-15T14:42:42;42.07;;;25.03;;
5945;SDS011;2998;48.206;16.394;2022-12-15T14:45:17;46.23;;;29.17;;
5945;SDS011;2998;48.206;16.394;2022-12-15T14:47:48;38.83;;;26.10;;
5945;SDS011;2998;48.206;16.394;2022-12-15T14:50:39;40.60;;;25.73;;
5945;SDS011;2998;48.206;16.394;2022-12-15T14:53:13;31.17;;;22.03;;
5945;SDS011;2998;48.206;16.394;2022-12-15T14:55:43;40.80;;;24.20;;
5945;SDS011;2998;48.206;16.394;2022-12-15T14:58:23;37.90;;;22.80;;
5945;SDS011;2998;48.206;16.394;2022-12-15T15:00:56;33.10;;;21.30;;
5945;SDS011;2998;48.206;16.394;2022-12-15T15:03:25;33.27;;;23.30;;
5945;SDS011;2998;48.206;16.394;2022-12-15T15:06:02;33.23;;;21.80;;
5945;SDS011;2998;48.206;16.394;2022-12-15T15:08:32;40.93;;;25.93;;
5945;SDS011;2998;48.206;16.394;2022-12-15T15:11:03;41.73;;;25.30;;
5945;SDS011;2998;48.206;16.394;2022-12-15T15:13:48;42.10;;;24.27;;
5945;SDS011;2998;48.206;16.394;2022-12-15T15:16:21;41.83;;;25.93;;
5945;SDS011;2998;48.206;16.394;2022-12-15T15:18:50;37.33;;;22.47;;
5945;SDS011;2998;48.206;16.394;2022-12-15T15:21:20;45.33;;;25.80;;
5945;SDS011;2998;48.206;16.394;2022-12-15T15:23:57;32.97;;;22.43;;
5945;SDS011;2998;48.206;16.394;2022-12-15T15:26:26;43.50;;;26.80;;
5945;SDS011;2998;48.206;16.394;2022-12-15T15:28:57;42.30;;;25.13;;
5945;SDS011;2998;48.206;16.394;2022-12-15T15:31:27;40.90;;;23.23;;
5945;SDS011;2998;48.206;16.394;2022-12-15T15:34:06;44.97;;;26.40;;
5945;SDS011;2998;48.206;16.394;2022-12-15T15:36:34;43.83;;;25.43;;
5945;SDS011;2998;48.206;16.394;2022-12-15T15:39:07;42.00;;;24.33;;
5945;SDS011;2998;48.206;16.394;2022-12-15T15:41:38;51.13;;;26.73;;
5945;SDS011;2998;48.206;16.394;2022-12-15T15:44:10;54.13;;;29.87;;
5945;SDS011;2998;48.206;16.394;2022-12-15T15:46:41;48.83;;;29.40;;